Flight Track Log - Related Links

Times and Time Zones

All times are in EDT time to prevent confusion due to time zone crossing. See the GJS3707 flight status page for this flight to view local times or setup timezone preferences in your user account.

Time Position Orientation Groundspeed Altitude Reporting Facility
EDT Latitude Longitude Course Direction KTS MPH feet Rate Location/Type
Wed 10:52:05 AM 42.0000 -87.9667 270° West 174 200 1,900  Level Chicago TRACON
Wed 10:53:12 AM 42.0000 -88.0500 270° West 223 257 3,500 1,742 Climbing Chicago TRACON
Wed 10:54:40 AM 41.9897 -88.1775 264° West 251 289 6,400 2,120 Climbing Chicago Center
Wed 10:55:42 AM 41.9894 -88.2836 270° West 279 321 8,800 2,177 Climbing Chicago Center
Wed 10:56:00 AM 41.9668 -88.6799 270° West  Level FlightAware Approximate
Wed 10:56:44 AM 41.9908 -88.3894 271° West 286 329 10,900  Level Chicago Center
Wed 10:57:00 AM 41.9668 -88.8359 270° West  Level FlightAware Approximate
Wed 10:57:47 AM 42.0083 -88.5289 280° West 314 361 12,300  Level Chicago Center
Wed 10:58:49 AM 42.0214 -88.6569 278° West 344 396 13,900 1,597 Climbing Chicago Center
Wed 10:59:51 AM 42.0283 -88.7883 274° West 357 411 15,600 1,597 Climbing Chicago Center
Wed 11:00:53 AM 42.0336 -88.9233 273° West 364 419 17,200 1,258 Climbing Chicago Center
Wed 11:01:55 AM 42.0403 -89.0597 274° West 368 423 18,200 1,306 Climbing Chicago Center
Wed 11:02:57 AM 42.0483 -89.2303 274° West 383 441 19,900 1,355 Climbing Chicago Center
Wed 11:03:59 AM 42.0578 -89.3733 275° West 388 447 21,000 1,113 Climbing Chicago Center
Wed 11:05:01 AM 42.0692 -89.5197 276° West 394 453 22,200 1,113 Climbing Chicago Center
Wed 11:06:03 AM 42.0800 -89.6781 275° West 415 478 23,300 1,065 Climbing Chicago Center
Wed 11:07:05 AM 42.0892 -89.8339 275° West 416 479 24,400 1,104 Climbing Chicago Center
Wed 11:08:08 AM 42.0844 -90.0150 268° West 420 483 25,600 1,056 Climbing Chicago Center
Wed 11:09:10 AM 42.0836 -90.1733 270° West 424 488 26,600 726 Climbing Chicago Center
Wed 11:10:12 AM 42.0844 -90.3336 270° West 431 496 27,100 484 Climbing Chicago Center
Wed 11:11:14 AM 42.0847 -90.4989 270° West 442 509 27,600 537 Climbing Chicago Center
Wed 11:12:15 AM 42.0833 -90.6683 269° West 452 520 28,200 780 Climbing Chicago Center
Wed 11:13:17 AM 42.0847 -90.8372 271° West 454 522 29,200 968 Climbing Chicago Center
Wed 11:14:19 AM 42.0906 -91.0422 272° West 458 527 30,200 968 Climbing Chicago Center
Wed 11:15:21 AM 42.0958 -91.2100 272° West 454 522 31,200 871 Climbing Chicago Center
Wed 11:16:23 AM 42.1022 -91.3753 273° West 447 514 32,000 806 Climbing Chicago Center
Wed 11:18:27 AM 42.1158 -91.7097 273° West 447 514 33,700 677 Climbing Chicago Center
Wed 11:19:29 AM 42.1217 -91.8758 273° West 445 512 34,100 484 Climbing Chicago Center
Wed 11:20:31 AM 42.1253 -92.0803 271° West 456 525 34,700 532 Climbing Chicago Center
Wed 11:21:33 AM 42.1303 -92.2500 272° West 458 527 35,200 484 Climbing Chicago Center
Wed 11:22:35 AM 42.1567 -92.4133 282° West 449 517 35,700 390 Climbing Chicago Center
Wed 11:23:36 AM 42.1856 -92.5842 283° West 462 532 36,000 196 Climbing Chicago Center
Wed 11:24:07 AM 42.1978 -92.6519 284° West 461 531 36,000  Level Minneapolis Center
Wed 11:25:10 AM 42.2306 -92.8464 283° West 450 518 36,000  Level Minneapolis Center
Wed 11:26:12 AM 42.2553 -93.0053 282° West 439 505 36,000  Level Minneapolis Center
Wed 11:27:14 AM 42.2811 -93.1656 282° West 441 507 36,000  Level Minneapolis Center
Wed 11:28:16 AM 42.3122 -93.3572 282° West 440 506 36,000  Level Minneapolis Center
Wed 11:29:18 AM 42.3378 -93.5178 282° West 440 506 36,000  Level Minneapolis Center
Wed 11:30:20 AM 42.3628 -93.6778 282° West 440 506 36,000  Level Minneapolis Center
Wed 11:31:21 AM 42.3822 -93.8047 282° West 437 503 36,000  Level Minneapolis Center
Wed 11:32:24 AM 42.4106 -93.9964 281° West 437 503 36,000  Level Minneapolis Center
Wed 11:33:26 AM 42.4394 -94.1889 282° West 440 506 36,000  Level Minneapolis Center
Wed 11:34:28 AM 42.4644 -94.3431 282° West 439 505 36,000  Level Minneapolis Center
Wed 11:35:30 AM 42.4889 -94.5136 281° West 445 512 36,000  Level Minneapolis Center
Wed 11:36:32 AM 42.5125 -94.6708 282° West 444 511 36,000  Level Minneapolis Center
Wed 11:37:46 AM 42.5461 -94.9025 281° West 447 514 36,000  Level Minneapolis Center
Wed 11:38:48 AM 42.5692 -95.0700 281° West 452 520 36,000  Level Minneapolis Center
Wed 11:39:51 AM 42.5931 -95.2372 281° West 453 521 36,000  Level Minneapolis Center
Wed 11:40:53 AM 42.6167 -95.4056 281° West 455 524 36,000  Level Minneapolis Center
Wed 11:41:55 AM 42.6394 -95.5758 280° West 458 527 36,000  Level Minneapolis Center
Wed 11:42:57 AM 42.6639 -95.7481 281° West 463 533 36,000  Level Minneapolis Center
Wed 11:43:59 AM 42.6917 -95.9528 281° West 463 533 36,000  Level Minneapolis Center
Wed 11:45:01 AM 42.7147 -96.1339 280° West 464 534 36,000  Level Minneapolis Center
Wed 11:46:03 AM 42.7361 -96.3056 280° West 462 532 36,000  Level Minneapolis Center
Wed 11:47:05 AM 42.7592 -96.4794 280° West 465 535 36,000  Level Minneapolis Center
Wed 11:48:07 AM 42.7808 -96.6511 280° West 463 533 36,000  Level Minneapolis Center
Wed 11:49:09 AM 42.8025 -96.8236 280° West 462 532 36,000  Level Minneapolis Center
Wed 11:50:11 AM 42.8239 -96.9942 280° West 460 529 36,000  Level Minneapolis Center
Wed 11:51:13 AM 42.8494 -97.2008 280° West 461 531 36,000  Level Minneapolis Center
Wed 11:52:15 AM 42.8700 -97.3703 279° West 457 526 36,000  Level Minneapolis Center
Wed 11:53:17 AM 42.8900 -97.5381 279° West 451 519 36,000  Level Minneapolis Center
Wed 11:54:20 AM 42.9092 -97.7058 279° West 449 517 36,000  Level Minneapolis Center
Wed 11:55:22 AM 42.9300 -97.8731 280° West 448 516 36,000  Level Minneapolis Center
Wed 11:56:24 AM 42.9517 -98.0436 280° West 452 520 36,000  Level Minneapolis Center
Wed 11:57:26 AM 42.9736 -98.2458 279° West 451 519 36,000  Level Minneapolis Center
Wed 11:58:28 AM 42.9919 -98.4144 279° West 449 517 36,000  Level Minneapolis Center
Wed 11:59:30 AM 43.0108 -98.5839 279° West 452 520 36,000  Level Minneapolis Center
Wed 12:00:32 PM 43.0281 -98.7522 278° West 449 517 36,000  Level Minneapolis Center
Wed 12:01:34 PM 43.0467 -98.9225 279° West 452 520 36,000  Level Minneapolis Center
Wed 12:02:36 PM 43.0678 -99.1114 279° West 452 520 36,000  Level Minneapolis Center
Wed 12:03:38 PM 43.0850 -99.2792 278° West 448 516 36,000  Level Minneapolis Center
Wed 12:04:40 PM 43.1025 -99.4439 278° West 442 509 36,000  Level Minneapolis Center
Wed 12:05:42 PM 43.1194 -99.6308 277° West 449 517 36,000  Level Minneapolis Center
Wed 12:06:44 PM 43.1367 -99.8017 278° West 452 520 36,000  Level Minneapolis Center
Wed 12:07:46 PM 43.1531 -99.9686 278° West 447 514 36,000  Level Minneapolis Center
Wed 12:08:48 PM 43.1694 -100.1381 278° West 447 514 36,000  Level Minneapolis Center
Wed 12:09:50 PM 43.1864 -100.3069 278° West 447 514 36,000  Level Minneapolis Center
Wed 12:10:52 PM 43.2039 -100.5103 277° West 447 514 36,000  Level Minneapolis Center
Wed 12:11:55 PM 43.2197 -100.6806 277° West 448 516 36,000  Level Minneapolis Center
Wed 12:12:57 PM 43.2353 -100.8489 277° West 447 514 36,000  Level Minneapolis Center
Wed 12:13:59 PM 43.2508 -101.0225 277° West 452 520 36,000  Level Minneapolis Center
Wed 12:15:01 PM 43.2656 -101.1914 277° West 450 518 36,000  Level Minneapolis Center
Wed 12:16:11 PM 43.2828 -101.3967 277° West 450 518 36,000  Level Denver Center
Wed 12:17:13 PM 43.2972 -101.5681 277° West 453 521 36,000  Level Denver Center
Wed 12:18:15 PM 43.3103 -101.7400 276° West 452 520 36,000  Level Denver Center
Wed 12:19:17 PM 43.3278 -101.9453 277° West 452 520 36,000  Level Denver Center
Wed 12:20:20 PM 43.3403 -102.1075 276° West 448 516 36,000  Level Denver Center
Wed 12:21:22 PM 43.3556 -102.2994 276° West 454 522 36,000  Level Denver Center
Wed 12:22:24 PM 43.3675 -102.4614 276° West 447 514 36,000  Level Denver Center
Wed 12:23:26 PM 43.3814 -102.6531 276° West 451 519 36,000  Level Denver Center
Wed 12:24:28 PM 43.3939 -102.8142 276° West 446 513 36,000  Level Denver Center
Wed 12:25:30 PM 43.4056 -102.9761 276° West 446 513 36,000  Level Denver Center
Wed 12:26:32 PM 43.4183 -103.1653 275° West 447 514 36,000  Level Denver Center
Wed 12:27:34 PM 43.4300 -103.3247 276° West 442 509 36,000  Level Denver Center
Wed 12:28:36 PM 43.4428 -103.5136 275° West 444 511 36,000  Level Denver Center
Wed 12:29:38 PM 43.4533 -103.6742 275° West 444 511 36,000  Level Denver Center
Wed 12:30:40 PM 43.4644 -103.8608 275° West 441 507 36,000  Level Denver Center
Wed 12:31:42 PM 43.4739 -104.0225 275° West 444 511 36,000  Level Denver Center
Wed 12:32:44 PM 43.4853 -104.2072 275° West 439 505 36,000  Level Denver Center
Wed 12:33:46 PM 43.4947 -104.3678 275° West 441 507 36,000  Level Denver Center
Wed 12:34:48 PM 43.5061 -104.5531 275° West 439 505 36,000  Level Denver Center
Wed 12:35:50 PM 43.5147 -104.7136 274° West 440 506 36,000  Level Denver Center
Wed 12:36:52 PM 43.5250 -104.8986 274° West 438 504 36,000  Level Denver Center
Wed 12:37:55 PM 43.5336 -105.0572 274° West 436 502 36,000  Level Denver Center
Wed 12:38:57 PM 43.5433 -105.2422 274° West 436 502 36,000  Level Denver Center
Wed 12:39:59 PM 43.5511 -105.4019 274° West 437 503 36,000  Level Denver Center
Wed 12:41:01 PM 43.5614 -105.5875 274° West 436 502 36,000  Level Denver Center
Wed 12:42:03 PM 43.5678 -105.7478 273° West 438 504 36,000  Level Denver Center
Wed 12:43:05 PM 43.5744 -105.9344 273° West 439 505 36,000  Level Denver Center
Wed 12:44:07 PM 43.5819 -106.0956 274° West 441 507 36,000  Level Denver Center
Wed 12:45:09 PM 43.5889 -106.2822 273° West 439 505 36,000  Level Denver Center
Wed 12:46:24 PM 43.5956 -106.4964 273° West 438 504 36,000  Level Denver Center
Wed 12:47:26 PM 43.6011 -106.6542 273° West 434 499 36,000  Level Denver Center
Wed 12:48:28 PM 43.6083 -106.8369 273° West 430 495 36,000  Level Denver Center
Wed 12:49:30 PM 43.6133 -106.9908 273° West 427 491 36,000  Level Denver Center
Wed 12:50:32 PM 43.6203 -107.1486 274° West 418 481 36,000  Level Denver Center
Wed 12:51:34 PM 43.6244 -107.3108 272° West 420 483 36,000  Level Denver Center
Wed 12:52:36 PM 43.6297 -107.4725 273° West 422 486 36,000  Level Denver Center
Wed 12:53:38 PM 43.6358 -107.6669 273° West 422 486 36,000  Level Denver Center
Wed 12:54:40 PM 43.6411 -107.8283 273° West 422 486 36,000  Level Denver Center
Wed 12:56:01 PM 43.6469 -108.0578 272° West 421 484 36,000  Level Salt Lake Center
Wed 12:57:03 PM 43.6503 -108.2228 272° West 428 493 36,000  Level Salt Lake Center
Wed 12:58:05 PM 43.6553 -108.3858 272° West 426 490 36,000  Level Salt Lake Center
Wed 12:59:07 PM 43.6592 -108.5506 272° West 428 493 36,000  Level Salt Lake Center
Wed 01:00:09 PM 43.6622 -108.7150 272° West 430 495 36,000  Level Salt Lake Center
Wed 01:01:11 PM 43.6653 -108.8775 272° West 427 491 36,000  Level Salt Lake Center
Wed 01:02:13 PM 43.6686 -109.0389 272° West 424 488 36,000  Level Salt Lake Center
Wed 01:03:15 PM 43.6719 -109.2300 271° West 418 481 36,000  Level Salt Lake Center
Wed 01:04:17 PM 43.6742 -109.3897 271° West 416 479 36,000  Level Salt Lake Center
Wed 01:05:19 PM 43.6761 -109.5419 271° West 414 476 36,000  Level Salt Lake Center
Wed 01:06:21 PM 43.6772 -109.7061 271° West 417 480 36,000  Level Salt Lake Center
Wed 01:07:23 PM 43.6789 -109.8556 271° West 409 471 36,000  Level Salt Lake Center
Wed 01:08:25 PM 43.6803 -110.0431 271° West 408 470 36,000  Level Salt Lake Center
Wed 01:09:27 PM 43.6817 -110.2014 271° West 411 473 36,000  Level Salt Lake Center
Wed 01:10:29 PM 43.6842 -110.3578 271° West 410 472 36,000  Level Salt Lake Center
Wed 01:11:31 PM 43.6847 -110.5158 270° West 412 474 36,000  Level Salt Lake Center
Wed 01:12:33 PM 43.6892 -110.6689 272° West 409 471 36,000  Level Salt Lake Center
Wed 01:13:35 PM 43.6878 -110.8611 269° West 438 504 36,000  Level Salt Lake Center
Wed 01:14:37 PM 43.6836 -111.0047 268° West 414 476 36,000  Level Salt Lake Center
Wed 01:15:39 PM 43.6833 -111.1806 270° West 412 474 36,000  Level Salt Lake Center
Wed 01:16:41 PM 43.6828 -111.3311 270° West 411 473 36,000  Level Salt Lake Center
Wed 01:17:43 PM 43.6822 -111.5050 270° West 408 470 36,000  Level Salt Lake Center
Wed 01:18:45 PM 43.6817 -111.6553 270° West 409 471 36,000  Level Salt Lake Center
Wed 01:19:47 PM 43.6806 -111.8283 270° West 409 471 36,000  Level Salt Lake Center
Wed 01:20:49 PM 43.6792 -111.9844 269° West 409 471 36,000  Level Salt Lake Center
Wed 01:21:51 PM 43.6775 -112.1400 269° West 408 470 36,000  Level Salt Lake Center
Wed 01:22:53 PM 43.6750 -112.2967 269° West 409 471 36,000  Level Salt Lake Center
Wed 01:23:55 PM 43.6736 -112.4817 269° West 405 466 36,000  Level Salt Lake Center
Wed 01:24:57 PM 43.6714 -112.6328 269° West 402 463 36,000  Level Salt Lake Center
Wed 01:25:59 PM 43.6700 -112.7839 269° West 399 459 36,000  Level Salt Lake Center
Wed 01:27:01 PM 43.6664 -112.9442 268° West 403 464 36,000  Level Salt Lake Center
Wed 01:28:03 PM 43.6650 -113.0986 269° West 403 464 36,000  Level Salt Lake Center
Wed 01:29:05 PM 43.6617 -113.2617 268° West 404 465 36,000  Level Salt Lake Center
Wed 01:30:07 PM 43.6592 -113.4364 269° West 406 467 36,000  Level Salt Lake Center
Wed 01:31:09 PM 43.6539 -113.5975 267° West 412 474 36,000  Level Salt Lake Center
Wed 01:32:11 PM 43.6503 -113.7594 268° West 408 470 36,000  Level Salt Lake Center
Wed 01:33:13 PM 43.6453 -113.9097 267° West 406 467 36,000 -290 Level Salt Lake Center
Wed 01:34:15 PM 43.6411 -114.0836 268° West 406 467 35,400 -1,258 Descending Salt Lake Center
Wed 01:35:17 PM 43.6308 -114.2367 265° West 416 479 33,400 -2,129 Descending Salt Lake Center
Wed 01:36:19 PM 43.6033 -114.4117 258° West 418 481 31,000 -2,274 Descending Salt Lake Center
Wed 01:37:21 PM 43.5800 -114.5622 258° West 419 482 28,700 -2,226 Descending Salt Lake Center
Wed 01:38:23 PM 43.5556 -114.7142 258° West 423 487 26,400 -2,419 Descending Salt Lake Center
Wed 01:39:25 PM 43.5269 -114.8864 257° West 414 476 23,700 -2,400 Descending Salt Lake Center
Wed 01:40:28 PM 43.5028 -115.0322 257° West 409 471 21,400 -2,448 Descending Salt Lake Center
Wed 01:41:30 PM 43.4942 -115.2006 266° West 395 455 18,600 -2,419 Descending Salt Lake Center
Wed 01:42:32 PM 43.5047 -115.3450 276° West 394 453 16,400 -2,177 Descending Salt Lake Center
Wed 01:43:34 PM 43.5169 -115.4925 277° West 375 432 14,100 -1,694 Descending Salt Lake Center
Wed 01:44:36 PM 43.5267 -115.6322 276° West 354 407 12,900 -1,500 Descending Salt Lake Center
Wed 01:45:38 PM 43.5344 -115.7553 275° West 312 359 11,000 -1,887 Descending Salt Lake Center
Wed 01:46:40 PM 43.5056 -115.8603 249° West 290 334 9,000 -1,984 Descending Salt Lake Center
Wed 01:47:42 PM 43.4761 -115.9594 248° West 278 320 6,900 -1,694 Descending Salt Lake Center
Wed 01:48:44 PM 43.5036 -116.0492 293° West 245 282 5,500 -1,210 Descending Salt Lake Center
Wed 01:49:46 PM 43.5261 -116.1192 294° West 197 227 4,400 -1,065 Descending Salt Lake Center

Login

Don't have an account? Register now (free) for customized features, flight alerts, and more!